Lister — ZDHW6 — position and weather

sailwx.info

Track history (hours):
 
Tides and Currents Weather Stations Pressure Air Temp Water Temp Dewpoint Dewpoint Depression Visibility Wind Speed Wind Dir Waves Ship Positions

Lister

Last reported at 2015-Feb-27 00:32 UTC. Time now 2015-Mar-01 06:59 UTC.
Position N 57°08' E 017°15'.

Length 89 m; draft 5.9 m.

Type: Ship. MMSI: 236381000.

Date/timePositionNaut miles runAvg speedWind from/ knotsBaromVisibWave heightAir tempDewpointWater temp
2015-Feb-27 00:32N 57°08' E 017°15'1010.4
2015-Feb-26 23:33N 57°17' E 017°21'1010.2
2015-Feb-26 22:33N 57°27' E 017°28'  
2015-Feb-19 09:05N 59°38' E 023°15'610.5
2015-Feb-19 08:33N 59°39' E 023°26'1010.4
2015-Feb-19 07:34N 59°42' E 023°45'7710.3
2015-Feb-19 00:05N 59°59' E 026°14'610.7
2015-Feb-18 23:33N 60°00' E 026°25'1110.5
2015-Feb-18 22:32N 60°01' E 026°47'1010.5
2015-Feb-18 21:33N 60°01' E 027°07'1110.9
2015-Feb-18 20:30N 60°06' E 027°27'  
Track history (hours):
 
Tides and Currents Weather Stations Pressure Air Temp Water Temp Dewpoint Dewpoint Depression Visibility Wind Speed Wind Dir Waves Ship Positions

Lister

Last reported at 2015-Feb-27 00:32 UTC. Time now 2015-Mar-01 06:59 UTC.
Position N 57°08' E 017°15'.

Length 89 m; draft 5.9 m.

Type: Ship. MMSI: 236381000.

Date/timePositionNaut miles runAvg speedWind from/ knotsBaromVisibWave heightAir tempDewpointWater temp
2015-Feb-27 00:32N 57°08' E 017°15'1010.4
2015-Feb-26 23:33N 57°17' E 017°21'1010.2
2015-Feb-26 22:33N 57°27' E 017°28'  
2015-Feb-19 09:05N 59°38' E 023°15'610.5
2015-Feb-19 08:33N 59°39' E 023°26'1010.4
2015-Feb-19 07:34N 59°42' E 023°45'7710.3
2015-Feb-19 00:05N 59°59' E 026°14'610.7
2015-Feb-18 23:33N 60°00' E 026°25'1110.5
2015-Feb-18 22:32N 60°01' E 026°47'1010.5
2015-Feb-18 21:33N 60°01' E 027°07'1110.9
2015-Feb-18 20:30N 60°06' E 027°27'  

Dump ship's entire track history